Culdrose, United Kingdom
Current Conditions -  °F | °C
As of 6:50 AM on Monday 22 Dec 2014 (Local Time) from EGDR Reporting Station
Drizzle Drizzle  
Wind Chill: 52°   Ceiling: 1000
Heat Index: 52°   Visibility: 6mi
Dew Point: 50°   Wind: 15mph
Humidity: 94%   Direction: 240°WSW
Pressure: 30.21"   Gusts: 31mph
Location:  50.08°N, 5.25°W
Report Text: EGDR 220650Z 24013G27KT 9999 -DZ SCT007 BKN010 OVC016 11/10 Q1023 GRN
Loading
Personal Weather Stations






























Interactive Weather Map New forecast layout! Learn more

10-Day Weather Forecast

Advertisements
Track Severe Weather on mobile